Time;durP1;ratioP1;P1;durP2;ratioP2;P2;SDS_P1;SDS_P2;PMS_P1;PMS_P2;Temp;Humidity;BMP_temperature;BMP_pressure;BME280_temperature;BME280_humidity;BME280_pressure;Samples;Min_cycle;Max_cycle;Signal;HPM_P1;HPM_P2
2023/11/19 00:00:57;;;;;;;;;;;3.00;64.50;;;;;;5094060;28;19989;-67
2023/11/19 00:03:23;;;;;;;;;;;3.00;64.20;;;;;;5076513;28;20019;-69
2023/11/19 00:05:50;;;;;;;;;;;3.10;64.20;;;;;;5094722;28;20409;-69
2023/11/19 00:08:16;;;;;;;;;;;3.10;64.30;;;;;;5094666;28;20027;-69
2023/11/19 00:10:42;;;;;;;;;;;3.10;64.00;;;;;;5075789;28;19924;-71
2023/11/19 00:13:08;;;;;;;;;;;3.10;64.10;;;;;;5075902;28;20019;-67
2023/11/19 00:15:34;;;;;;;;;;;3.20;64.20;;;;;;5093750;28;19923;-67
2023/11/19 00:18:02;;;;;;;;;;;3.10;64.50;;;;;;5076202;28;19950;-69
2023/11/19 00:20:28;;;;;;;;;;;3.20;64.30;;;;;;5075832;28;20006;-69
2023/11/19 00:22:54;;;;;;;;;;;3.20;64.40;;;;;;5094227;28;19977;-69
2023/11/19 00:25:25;;;;;;;;;;;3.20;64.40;;;;;;5094251;28;19920;-69
2023/11/19 00:27:53;;;;;;;;;;;3.20;64.20;;;;;;5075676;28;19928;-71
2023/11/19 00:30:19;;;;;;;;;;;3.20;64.40;;;;;;5093470;28;19916;-70
2023/11/19 00:32:45;;;;;;;;;;;3.20;63.90;;;;;;5076034;28;19924;-70
2023/11/19 00:35:13;;;;;;;;;;;3.30;64.70;;;;;;5076055;28;19920;-69
2023/11/19 00:37:39;;;;;;;;;;;3.30;64.70;;;;;;5075959;28;19928;-69
2023/11/19 00:40:06;;;;;;;;;;;3.30;64.70;;;;;;5093320;28;19916;-71
2023/11/19 00:42:32;;;;;;;;;;;3.30;64.50;;;;;;5093874;28;19920;-68
2023/11/19 00:44:58;;;;;;;;;;;3.40;64.60;;;;;;5075847;28;19939;-67
2023/11/19 00:47:23;;;;;;;;;;;3.40;64.60;;;;;;5058838;28;19923;-67
2023/11/19 00:49:50;;;;;;;;;;;3.40;64.70;;;;;;5093882;28;19916;-66
2023/11/19 00:52:16;;;;;;;;;;;3.40;64.60;;;;;;5093431;28;19927;-67
2023/11/19 00:54:43;;;;;;;;;;;3.40;64.60;;;;;;5075899;28;20162;-67
2023/11/19 00:57:09;;;;;;;;;;;3.40;64.50;;;;;;5093518;28;19916;-67
2023/11/19 00:59:34;;;;;;;;;;;3.40;64.70;;;;;;5075409;28;19982;-66
2023/11/19 01:02:04;;;;;;;;;;;3.30;64.40;;;;;;5093109;28;20003;-69
2023/11/19 01:04:49;;;;;;;;;;;3.30;64.60;;;;;;5093532;28;19970;-67
2023/11/19 01:07:16;;;;;;;;;;;3.30;64.60;;;;;;5075391;28;19924;-71
2023/11/19 01:09:42;;;;;;;;;;;3.20;64.90;;;;;;5093369;28;19971;-70
2023/11/19 01:12:10;;;;;;;;;;;3.20;64.70;;;;;;5074330;28;20300;-67
2023/11/19 01:14:36;;;;;;;;;;;3.20;64.70;;;;;;5075579;28;19924;-69
2023/11/19 01:17:02;;;;;;;;;;;3.20;64.90;;;;;;5093288;28;19923;-69
2023/11/19 01:19:28;;;;;;;;;;;3.30;65.00;;;;;;5093375;28;19920;-69
2023/11/19 01:21:54;;;;;;;;;;;3.20;64.70;;;;;;5092709;28;20432;-68
2023/11/19 01:24:21;;;;;;;;;;;3.20;64.00;;;;;;5058580;28;20297;-67
2023/11/19 01:26:47;;;;;;;;;;;3.30;64.10;;;;;;5074426;28;19920;-69
2023/11/19 01:29:13;;;;;;;;;;;3.30;64.70;;;;;;5093278;28;20003;-69
2023/11/19 01:31:41;;;;;;;;;;;3.30;64.10;;;;;;5092782;28;20091;-68
2023/11/19 01:34:07;;;;;;;;;;;3.30;64.10;;;;;;5093578;28;19924;-68
2023/11/19 01:36:32;;;;;;;;;;;3.40;64.10;;;;;;5075155;28;19938;-67
2023/11/19 01:38:58;;;;;;;;;;;3.40;64.20;;;;;;5093192;28;19924;-67
2023/11/19 01:41:24;;;;;;;;;;;3.40;64.30;;;;;;5074235;28;19969;-68
2023/11/19 01:43:50;;;;;;;;;;;3.40;64.40;;;;;;5093488;28;19928;-68
2023/11/19 01:46:16;;;;;;;;;;;3.50;64.50;;;;;;5093006;28;19916;-69
2023/11/19 01:49:02;;;;;;;;;;;3.50;64.40;;;;;;5074989;28;19935;-68
2023/11/19 01:51:28;;;;;;;;;;;3.50;64.40;;;;;;5092548;28;19920;-67
2023/11/19 01:53:56;;;;;;;;;;;3.50;63.60;;;;;;5057844;28;19985;-67
2023/11/19 01:56:22;;;;;;;;;;;3.50;64.30;;;;;;5074999;28;19955;-69
2023/11/19 01:58:49;;;;;;;;;;;3.50;64.20;;;;;;5075065;28;19924;-67
2023/11/19 02:01:16;;;;;;;;;;;3.50;64.20;;;;;;5074346;28;19920;-69
2023/11/19 02:03:42;;;;;;;;;;;3.60;64.40;;;;;;5074749;28;19985;-67
2023/11/19 02:06:10;;;;;;;;;;;3.60;64.40;;;;;;5074837;28;19923;-67
2023/11/19 02:08:37;;;;;;;;;;;3.60;63.80;;;;;;5058295;28;19981;-68
2023/11/19 02:11:03;;;;;;;;;;;3.60;64.40;;;;;;5073950;28;19927;-67
2023/11/19 02:13:29;;;;;;;;;;;3.60;64.40;;;;;;5074621;28;19931;-69
2023/11/19 02:18:39;;;;;;;;;;;3.70;64.40;;;;;;5077595;28;20008;-69
2023/11/19 02:21:05;;;;;;;;;;;3.70;64.70;;;;;;5092075;28;20351;-68
2023/11/19 02:23:31;;;;;;;;;;;3.60;63.80;;;;;;5092545;28;19932;-69
2023/11/19 02:26:34;;;;;;;;;;;3.70;64.90;;;;;;5074665;28;19961;-69
2023/11/19 02:29:00;;;;;;;;;;;3.60;64.70;;;;;;5092859;28;20019;-67
2023/11/19 02:31:27;;;;;;;;;;;3.70;64.90;;;;;;5057332;28;19943;-69
2023/11/19 02:33:53;;;;;;;;;;;3.70;64.90;;;;;;5092905;28;19977;-69
2023/11/19 02:36:19;;;;;;;;;;;3.70;64.80;;;;;;5092567;28;19916;-67
2023/11/19 02:38:44;;;;;;;;;;;3.70;64.70;;;;;;5075689;28;19950;-69
2023/11/19 02:41:10;;;;;;;;;;;3.60;64.90;;;;;;5077247;28;19928;-69
2023/11/19 02:43:37;;;;;;;;;;;3.60;64.90;;;;;;5096419;28;19924;-67
2023/11/19 02:48:50;;;;;;;;;;;3.60;64.90;;;;;;5081088;28;19977;-67
2023/11/19 02:51:15;;;;;;;;;;;3.70;65.20;;;;;;5095497;28;19928;-69
2023/11/19 02:53:44;;;;;;;;;;;3.70;65.00;;;;;;5077704;28;19931;-67
2023/11/19 02:56:25;;;;;;;;;;;3.60;65.00;;;;;;5078132;28;20292;-69
2023/11/19 02:58:51;;;;;;;;;;;3.60;65.10;;;;;;5096133;28;19928;-69
2023/11/19 03:01:35;;;;;;;;;;;3.70;65.30;;;;;;5095573;28;19921;-69
2023/11/19 03:04:02;;;;;;;;;;;3.60;65.30;;;;;;5096213;28;19934;-68
2023/11/19 03:06:28;;;;;;;;;;;3.60;65.50;;;;;;5060959;28;20015;-67
2023/11/19 03:09:13;;;;;;;;;;;3.60;65.50;;;;;;5096125;28;19931;-69
2023/11/19 03:11:38;;;;;;;;;;;3.60;65.50;;;;;;5076867;28;20339;-67
2023/11/19 03:14:04;;;;;;;;;;;3.60;65.70;;;;;;5096002;28;19924;-69
2023/11/19 03:16:30;;;;;;;;;;;3.60;65.80;;;;;;5077530;28;20324;-69
2023/11/19 03:18:56;;;;;;;;;;;3.60;66.00;;;;;;5077509;28;19924;-68
2023/11/19 03:21:41;;;;;;;;;;;3.50;66.10;;;;;;5076942;28;19965;-68
2023/11/19 03:24:08;;;;;;;;;;;3.50;66.10;;;;;;5077530;28;19928;-69
2023/11/19 03:26:34;;;;;;;;;;;3.50;66.30;;;;;;5095379;28;19943;-68
2023/11/19 03:29:01;;;;;;;;;;;3.50;66.30;;;;;;5076939;28;19924;-67
2023/11/19 03:31:27;;;;;;;;;;;3.40;66.60;;;;;;5076554;28;19924;-69
2023/11/19 03:33:53;;;;;;;;;;;3.30;66.80;;;;;;5077277;28;19920;-67
2023/11/19 03:36:18;;;;;;;;;;;3.30;66.90;;;;;;5077119;28;19920;-67
2023/11/19 03:38:44;;;;;;;;;;;3.20;67.00;;;;;;5095416;28;20007;-67
2023/11/19 03:41:12;;;;;;;;;;;3.20;67.10;;;;;;5076166;28;20557;-67
2023/11/19 03:43:39;;;;;;;;;;;3.20;67.00;;;;;;5077070;28;20265;-67
2023/11/19 03:46:05;;;;;;;;;;;3.20;67.20;;;;;;5060166;28;19927;-68
2023/11/19 03:48:31;;;;;;;;;;;3.10;67.20;;;;;;5076832;28;19946;-67
2023/11/19 03:50:57;;;;;;;;;;;3.10;67.80;;;;;;5093304;28;19924;-67
2023/11/19 03:53:24;;;;;;;;;;;3.10;68.60;;;;;;5076580;28;19930;-69
2023/11/19 03:55:50;;;;;;;;;;;3.10;69.00;;;;;;5094844;28;19916;-68
2023/11/19 03:58:16;;;;;;;;;;;3.20;68.50;;;;;;5076599;28;20023;-67
2023/11/19 04:00:42;;;;;;;;;;;3.20;68.10;;;;;;5094181;28;19920;-66
2023/11/19 04:03:08;;;;;;;;;;;3.30;68.00;;;;;;5076706;28;19947;-69
2023/11/19 04:05:34;;;;;;;;;;;3.30;67.60;;;;;;5094610;28;19916;-68
2023/11/19 04:08:00;;;;;;;;;;;3.30;67.40;;;;;;5094655;28;20383;-67
2023/11/19 04:10:27;;;;;;;;;;;3.30;67.40;;;;;;5094050;28;20003;-68
2023/11/19 04:12:53;;;;;;;;;;;3.30;67.30;;;;;;5094463;28;19920;-67
2023/11/19 04:15:19;;;;;;;;;;;3.20;67.40;;;;;;5094450;28;20303;-67
2023/11/19 04:17:44;;;;;;;;;;;3.20;67.50;;;;;;5076098;28;20010;-68
2023/11/19 04:20:13;;;;;;;;;;;3.10;67.60;;;;;;5093723;28;19930;-68
2023/11/19 04:22:39;;;;;;;;;;;3.10;67.50;;;;;;5076278;28;19920;-67
2023/11/19 04:25:06;;;;;;;;;;;3.00;67.30;;;;;;5076135;28;20018;-69
2023/11/19 04:27:31;;;;;;;;;;;3.00;67.40;;;;;;5075806;28;19923;-67
2023/11/19 04:29:57;;;;;;;;;;;3.10;67.80;;;;;;5094117;28;19927;-67
2023/11/19 04:32:25;;;;;;;;;;;3.10;67.80;;;;;;5075395;28;19920;-68
2023/11/19 04:34:51;;;;;;;;;;;3.10;67.70;;;;;;5059616;28;20458;-67
2023/11/19 04:37:17;;;;;;;;;;;3.20;67.60;;;;;;5093935;28;19916;-67
2023/11/19 04:39:45;;;;;;;;;;;3.20;67.50;;;;;;5075816;28;19924;-67
2023/11/19 04:42:11;;;;;;;;;;;3.20;67.40;;;;;;5093099;28;19924;-66
2023/11/19 04:44:37;;;;;;;;;;;3.20;67.40;;;;;;5093943;28;19946;-69
2023/11/19 04:47:03;;;;;;;;;;;3.20;67.60;;;;;;5075858;28;19920;-69
2023/11/19 04:49:30;;;;;;;;;;;3.20;67.60;;;;;;5093803;28;19977;-69
2023/11/19 04:51:56;;;;;;;;;;;3.20;67.80;;;;;;5093518;28;19943;-68
2023/11/19 04:54:22;;;;;;;;;;;3.30;67.70;;;;;;5075434;28;19920;-67
2023/11/19 04:56:48;;;;;;;;;;;3.30;67.80;;;;;;5093535;28;19920;-69
2023/11/19 04:59:14;;;;;;;;;;;3.30;67.70;;;;;;5075409;28;19942;-68
2023/11/19 05:01:40;;;;;;;;;;;3.30;67.70;;;;;;5092932;28;19920;-67
2023/11/19 05:04:07;;;;;;;;;;;3.20;67.00;;;;;;5094073;28;20019;-67
2023/11/19 05:06:34;;;;;;;;;;;3.20;67.50;;;;;;5093576;28;20375;-69
2023/11/19 05:09:01;;;;;;;;;;;3.30;67.70;;;;;;5075620;28;19928;-67
2023/11/19 05:11:28;;;;;;;;;;;3.30;67.60;;;;;;5092903;28;20609;-67
2023/11/19 05:13:54;;;;;;;;;;;3.30;67.10;;;;;;5058799;28;19977;-67
2023/11/19 05:16:20;;;;;;;;;;;3.30;67.60;;;;;;5075188;28;19961;-67
2023/11/19 05:18:46;;;;;;;;;;;3.40;67.10;;;;;;5093517;28;19928;-71
2023/11/19 05:21:13;;;;;;;;;;;3.30;67.70;;;;;;5074759;28;19942;-69
2023/11/19 05:23:39;;;;;;;;;;;3.30;68.00;;;;;;5093572;28;19924;-69
2023/11/19 05:26:05;;;;;;;;;;;3.30;69.00;;;;;;5075122;28;19916;-68
2023/11/19 05:28:31;;;;;;;;;;;3.30;68.50;;;;;;5074949;28;19935;-68
2023/11/19 05:30:57;;;;;;;;;;;3.30;68.50;;;;;;5092555;28;19920;-66
2023/11/19 05:33:23;;;;;;;;;;;3.30;67.90;;;;;;5093551;28;19963;-71
2023/11/19 05:35:49;;;;;;;;;;;3.30;68.60;;;;;;5058260;28;20007;-68
2023/11/19 05:38:15;;;;;;;;;;;3.40;68.70;;;;;;5075080;28;20027;-68
2023/11/19 05:41:00;;;;;;;;;;;3.40;68.60;;;;;;5092551;28;20337;-68
2023/11/19 05:43:26;;;;;;;;;;;3.40;68.20;;;;;;5075050;28;20357;-67
2023/11/19 05:45:52;;;;;;;;;;;3.50;68.30;;;;;;5075088;28;19985;-67
2023/11/19 05:48:18;;;;;;;;;;;3.50;68.10;;;;;;5093217;28;20011;-67
2023/11/19 05:50:44;;;;;;;;;;;3.40;68.60;;;;;;5074459;28;20404;-67
2023/11/19 05:53:10;;;;;;;;;;;3.30;68.90;;;;;;5074738;28;19970;-69
2023/11/19 05:55:44;;;;;;;;;;;3.30;68.80;;;;;;5074735;28;20291;-69
2023/11/19 05:58:12;;;;;;;;;;;3.40;68.40;;;;;;5076112;28;19925;-69
2023/11/19 06:00:40;;;;;;;;;;;3.40;68.30;;;;;;5074708;28;19966;-71
2023/11/19 06:03:07;;;;;;;;;;;3.40;68.30;;;;;;5075288;28;20385;-69
2023/11/19 06:05:33;;;;;;;;;;;3.40;68.30;;;;;;5092914;28;19923;-70
2023/11/19 06:07:59;;;;;;;;;;;3.50;68.40;;;;;;5092797;28;19924;-70
2023/11/19 06:13:11;;;;;;;;;;;3.60;68.30;;;;;;5078195;28;20312;-67
2023/11/19 06:15:37;;;;;;;;;;;3.60;68.50;;;;;;5096667;28;19962;-68
2023/11/19 06:18:03;;;;;;;;;;;3.60;68.60;;;;;;5078626;28;19950;-67
2023/11/19 06:20:30;;;;;;;;;;;3.60;68.30;;;;;;5078139;28;19927;-68
2023/11/19 06:22:56;;;;;;;;;;;3.60;68.20;;;;;;5078509;28;19924;-68
2023/11/19 06:25:23;;;;;;;;;;;3.70;68.10;;;;;;5061757;28;20446;-69
2023/11/19 06:27:50;;;;;;;;;;;3.70;67.90;;;;;;5096583;28;19935;-68
2023/11/19 06:30:16;;;;;;;;;;;3.70;67.90;;;;;;5077417;28;19923;-67
2023/11/19 06:32:42;;;;;;;;;;;3.80;69.20;;;;;;5061395;28;19924;-69
2023/11/19 06:35:09;;;;;;;;;;;3.80;67.50;;;;;;5096778;28;19961;-69
2023/11/19 06:37:35;;;;;;;;;;;3.90;68.10;;;;;;5078288;28;19924;-67
2023/11/19 06:40:04;;;;;;;;;;;3.90;68.10;;;;;;5061550;28;19920;-67
2023/11/19 06:42:31;;;;;;;;;;;3.90;68.00;;;;;;5095473;28;19931;-67
2023/11/19 06:44:57;;;;;;;;;;;3.90;68.20;;;;;;5078179;28;19923;-68
2023/11/19 06:47:27;;;;;;;;;;;3.90;67.90;;;;;;5077783;28;19931;-67
2023/11/19 06:49:53;;;;;;;;;;;4.00;67.90;;;;;;5078341;28;19922;-67
2023/11/19 06:52:19;;;;;;;;;;;4.00;68.20;;;;;;5095582;28;19920;-69
2023/11/19 06:54:47;;;;;;;;;;;4.00;68.10;;;;;;5095987;28;19924;-68
2023/11/19 06:57:13;;;;;;;;;;;4.10;68.10;;;;;;5096106;28;20396;-69
2023/11/19 06:59:39;;;;;;;;;;;4.10;68.10;;;;;;5077939;28;20003;-68
2023/11/19 07:02:06;;;;;;;;;;;4.20;67.90;;;;;;5095017;28;19960;-69
2023/11/19 07:04:33;;;;;;;;;;;4.30;68.10;;;;;;5095790;28;19931;-67
2023/11/19 07:06:59;;;;;;;;;;;4.20;68.70;;;;;;5077892;28;19916;-70
2023/11/19 07:09:26;;;;;;;;;;;4.20;68.60;;;;;;5077902;28;20011;-71
2023/11/19 07:11:53;;;;;;;;;;;4.10;69.20;;;;;;5094745;28;19935;-67
2023/11/19 07:14:19;;;;;;;;;;;4.30;69.60;;;;;;5077875;28;20325;-70
2023/11/19 07:16:46;;;;;;;;;;;4.30;68.60;;;;;;5077526;28;19920;-67
2023/11/19 07:19:12;;;;;;;;;;;4.40;68.20;;;;;;5077627;28;19930;-68
2023/11/19 07:21:43;;;;;;;;;;;4.50;67.80;;;;;;5095101;28;19924;-68
2023/11/19 07:24:10;;;;;;;;;;;4.60;68.20;;;;;;5095802;28;19920;-67
2023/11/19 07:26:37;;;;;;;;;;;4.60;68.10;;;;;;5095323;28;19924;-69
2023/11/19 07:29:07;;;;;;;;;;;4.70;68.00;;;;;;5077351;28;19967;-67
2023/11/19 07:31:33;;;;;;;;;;;4.70;67.40;;;;;;5077547;28;19930;-67
2023/11/19 07:33:59;;;;;;;;;;;4.80;68.20;;;;;;5095547;28;19920;-68
2023/11/19 07:36:24;;;;;;;;;;;4.80;68.00;;;;;;5077291;28;20003;-67
2023/11/19 07:38:50;;;;;;;;;;;4.90;67.80;;;;;;5060415;28;19924;-69
2023/11/19 07:41:16;;;;;;;;;;;4.90;67.70;;;;;;5094349;28;20405;-69
2023/11/19 07:43:50;;;;;;;;;;;5.00;67.40;;;;;;5095323;28;19977;-67
2023/11/19 07:46:16;;;;;;;;;;;5.00;67.10;;;;;;5095021;28;19920;-67
2023/11/19 07:48:42;;;;;;;;;;;5.00;67.40;;;;;;5060051;28;19930;-69
2023/11/19 07:51:08;;;;;;;;;;;5.00;67.20;;;;;;5093012;28;19931;-67
2023/11/19 07:53:34;;;;;;;;;;;5.00;67.30;;;;;;5059402;28;19969;-68
2023/11/19 07:56:01;;;;;;;;;;;5.00;67.00;;;;;;5090002;28;19916;-67
2023/11/19 07:58:29;;;;;;;;;;;5.00;67.00;;;;;;5074611;28;19925;-68
2023/11/19 08:00:55;;;;;;;;;;;5.10;67.40;;;;;;5072824;28;19944;-68
2023/11/19 08:03:22;;;;;;;;;;;5.10;67.50;;;;;;5074649;28;20408;-67
2023/11/19 08:05:48;;;;;;;;;;;5.10;67.00;;;;;;5074396;28;19920;-68
2023/11/19 08:08:14;;;;;;;;;;;5.20;67.40;;;;;;5061791;28;20011;-67
2023/11/19 08:10:40;;;;;;;;;;;5.30;67.40;;;;;;5075553;28;19920;-67
2023/11/19 08:13:07;;;;;;;;;;;5.40;67.20;;;;;;5059251;28;19928;-69
2023/11/19 08:15:33;;;;;;;;;;;5.40;66.50;;;;;;5059657;28;19916;-67
2023/11/19 08:17:59;;;;;;;;;;;5.50;66.30;;;;;;5076431;28;19924;-67
2023/11/19 08:20:25;;;;;;;;;;;5.70;66.90;;;;;;5075563;28;19931;-68
2023/11/19 08:22:50;;;;;;;;;;;5.80;66.60;;;;;;5075891;28;20006;-68
2023/11/19 08:25:17;;;;;;;;;;;5.90;66.80;;;;;;5059336;28;19935;-68
2023/11/19 08:27:43;;;;;;;;;;;5.90;66.60;;;;;;5093187;28;19928;-67
2023/11/19 08:30:09;;;;;;;;;;;6.00;66.80;;;;;;5093568;28;19923;-68
2023/11/19 08:32:35;;;;;;;;;;;6.00;66.00;;;;;;5075703;28;19924;-69
2023/11/19 08:35:01;;;;;;;;;;;6.10;66.00;;;;;;5076144;28;19920;-68
2023/11/19 08:37:27;;;;;;;;;;;6.20;66.40;;;;;;5093183;28;20434;-69
2023/11/19 08:39:53;;;;;;;;;;;6.30;66.30;;;;;;5094073;28;19954;-69
2023/11/19 08:42:20;;;;;;;;;;;6.30;66.00;;;;;;5074766;28;19931;-68
2023/11/19 08:45:06;;;;;;;;;;;6.40;65.30;;;;;;5087863;28;19920;-69
2023/11/19 08:47:32;;;;;;;;;;;6.50;65.50;;;;;;5055100;28;20015;-70
2023/11/19 08:49:58;;;;;;;;;;;6.60;64.90;;;;;;5073436;28;19966;-69
2023/11/19 08:52:24;;;;;;;;;;;6.70;64.90;;;;;;5071683;28;19956;-67
2023/11/19 08:54:50;;;;;;;;;;;6.80;64.40;;;;;;5083817;28;19958;-69
2023/11/19 08:57:15;;;;;;;;;;;6.80;64.40;;;;;;5073705;28;20007;-68
2023/11/19 08:59:41;;;;;;;;;;;6.80;64.70;;;;;;5075801;28;20394;-67
2023/11/19 09:02:08;;;;;;;;;;;6.80;64.60;;;;;;5083741;28;19920;-69
2023/11/19 09:04:34;;;;;;;;;;;6.80;64.90;;;;;;5076762;28;19920;-67
2023/11/19 09:07:00;;;;;;;;;;;6.80;64.90;;;;;;5055446;28;19917;-67
2023/11/19 09:09:26;;;;;;;;;;;6.70;65.40;;;;;;5055274;28;20031;-68
2023/11/19 09:11:51;;;;;;;;;;;6.50;65.60;;;;;;5080644;28;19932;-68
2023/11/19 09:14:18;;;;;;;;;;;6.50;66.20;;;;;;5073330;28;20425;-68
2023/11/19 09:16:44;;;;;;;;;;;6.50;66.20;;;;;;5072985;28;19920;-68
2023/11/19 09:19:10;;;;;;;;;;;6.40;66.00;;;;;;5055881;28;20011;-70
2023/11/19 09:21:38;;;;;;;;;;;6.50;65.70;;;;;;5053916;28;20005;-68
2023/11/19 09:24:04;;;;;;;;;;;6.50;65.30;;;;;;5072512;28;19932;-69
2023/11/19 09:26:30;;;;;;;;;;;6.60;64.90;;;;;;5072437;28;19952;-67
2023/11/19 09:28:56;;;;;;;;;;;6.70;64.50;;;;;;5055215;28;19932;-67
2023/11/19 09:31:22;;;;;;;;;;;6.80;64.90;;;;;;5054225;28;19920;-67
2023/11/19 09:33:48;;;;;;;;;;;6.90;64.80;;;;;;5055292;28;19925;-69
2023/11/19 09:36:14;;;;;;;;;;;7.00;63.70;;;;;;5072838;28;20361;-67
2023/11/19 09:39:02;;;;;;;;;;;7.10;63.30;;;;;;5073097;28;19931;-69
2023/11/19 09:41:30;;;;;;;;;;;7.50;63.00;;;;;;5054621;28;19967;-68
2023/11/19 09:43:56;;;;;;;;;;;7.80;62.00;;;;;;5055701;28;19925;-67
2023/11/19 09:46:24;;;;;;;;;;;8.20;61.70;;;;;;5072761;28;19942;-68
2023/11/19 09:48:54;;;;;;;;;;;8.70;60.60;;;;;;5087421;28;19985;-69
2023/11/19 09:51:21;;;;;;;;;;;9.00;59.30;;;;;;5096665;28;19920;-68
2023/11/19 09:53:47;;;;;;;;;;;9.30;58.20;;;;;;5078732;28;20292;-68
2023/11/19 09:56:12;;;;;;;;;;;9.50;58.10;;;;;;5096859;28;19923;-67
2023/11/19 09:58:39;;;;;;;;;;;9.70;57.90;;;;;;5076737;28;20403;-67
2023/11/19 10:01:09;;;;;;;;;;;9.70;56.60;;;;;;5057984;28;20015;-69
2023/11/19 10:03:39;;;;;;;;;;;9.60;55.20;;;;;;5059385;28;20011;-68
2023/11/19 10:06:26;;;;;;;;;;;9.70;55.70;;;;;;5059381;28;19960;-68
2023/11/19 10:08:52;;;;;;;;;;;9.80;55.20;;;;;;5058924;28;19928;-69
2023/11/19 10:11:17;;;;;;;;;;;10.00;54.20;;;;;;5041215;28;19934;-67
2023/11/19 10:13:47;;;;;;;;;;;10.20;53.70;;;;;;5076799;28;20284;-69
2023/11/19 10:16:14;;;;;;;;;;;10.40;52.00;;;;;;5076394;28;20373;-67
2023/11/19 10:18:58;;;;;;;;;;;10.20;52.30;;;;;;5050222;28;19921;-67
2023/11/19 10:21:25;;;;;;;;;;;10.20;52.50;;;;;;5065028;28;19987;-67
2023/11/19 10:23:52;;;;;;;;;;;10.00;52.30;;;;;;5073071;28;19924;-68
2023/11/19 10:26:19;;;;;;;;;;;9.90;52.50;;;;;;5074731;28;19923;-67
2023/11/19 10:28:48;;;;;;;;;;;9.90;52.50;;;;;;5078114;28;19924;-67
2023/11/19 10:31:15;;;;;;;;;;;9.90;52.90;;;;;;5060632;28;19924;-69
2023/11/19 10:33:43;;;;;;;;;;;9.90;52.40;;;;;;5078053;28;19934;-68
2023/11/19 10:36:09;;;;;;;;;;;10.00;52.10;;;;;;5069300;28;19934;-67
2023/11/19 10:38:35;;;;;;;;;;;10.10;52.00;;;;;;5058332;28;20456;-67
2023/11/19 10:41:02;;;;;;;;;;;10.10;51.10;;;;;;5056889;28;19932;-72
2023/11/19 10:43:28;;;;;;;;;;;10.00;49.70;;;;;;5037572;28;19928;-69
2023/11/19 10:45:53;;;;;;;;;;;10.10;50.70;;;;;;5061820;28;20399;-67
2023/11/19 10:48:21;;;;;;;;;;;10.20;51.20;;;;;;5076008;28;19946;-69
2023/11/19 10:50:53;;;;;;;;;;;10.10;51.50;;;;;;5057687;28;19920;-68
2023/11/19 10:53:20;;;;;;;;;;;10.00;51.20;;;;;;5043987;28;19955;-66
2023/11/19 10:55:48;;;;;;;;;;;9.90;51.20;;;;;;5056301;28;19916;-66
2023/11/19 10:58:16;;;;;;;;;;;9.90;49.90;;;;;;5075926;28;19925;-65
2023/11/19 11:01:05;;;;;;;;;;;9.90;49.80;;;;;;5055381;28;19928;-69
2023/11/19 11:03:37;;;;;;;;;;;9.90;50.30;;;;;;5032579;28;19925;-67
2023/11/19 11:06:03;;;;;;;;;;;9.90;51.10;;;;;;5037832;28;19924;-68
2023/11/19 11:08:30;;;;;;;;;;;9.90;50.60;;;;;;5034742;28;20320;-71
2023/11/19 11:10:57;;;;;;;;;;;9.80;50.80;;;;;;5041213;28;20284;-72
2023/11/19 11:13:27;;;;;;;;;;;9.70;51.10;;;;;;5041215;28;20023;-76
2023/11/19 11:15:54;;;;;;;;;;;9.70;50.80;;;;;;5074490;28;19970;-75
2023/11/19 11:18:20;;;;;;;;;;;9.80;50.50;;;;;;5057479;28;20011;-74
2023/11/19 11:20:46;;;;;;;;;;;9.80;51.10;;;;;;5067454;28;20007;-71
2023/11/19 11:23:36;;;;;;;;;;;9.70;49.70;;;;;;5052295;28;20099;-71
2023/11/19 11:26:26;;;;;;;;;;;9.70;50.70;;;;;;5053764;28;19925;-71
2023/11/19 11:29:30;;;;;;;;;;;9.70;51.20;;;;;;5048386;28;20015;-73
2023/11/19 11:31:56;;;;;;;;;;;9.70;51.60;;;;;;5074312;28;20003;-71
2023/11/19 11:34:27;;;;;;;;;;;9.70;52.00;;;;;;5065217;28;19968;-75
2023/11/19 11:37:26;;;;;;;;;;;9.60;52.40;;;;;;5037311;28;20366;-71
2023/11/19 11:39:51;;;;;;;;;;;9.60;51.80;;;;;;5031708;28;19928;-71
2023/11/19 11:45:43;;;;;;;;;;;9.60;52.40;;;;;;5070165;28;19920;-71
2023/11/19 11:48:28;;;;;;;;;;;9.70;52.10;;;;;;5062311;28;20015;-71
2023/11/19 11:50:56;;;;;;;;;;;9.80;52.00;;;;;;5038791;28;19924;-71
2023/11/19 11:53:24;;;;;;;;;;;9.80;51.60;;;;;;5046372;28;19942;-71
2023/11/19 11:55:50;;;;;;;;;;;9.90;51.40;;;;;;5076913;28;20011;-71
2023/11/19 11:58:35;;;;;;;;;;;9.90;51.90;;;;;;5076424;28;19994;-74
2023/11/19 12:01:03;;;;;;;;;;;10.00;51.00;;;;;;5064399;28;19920;-74
2023/11/19 12:03:30;;;;;;;;;;;10.00;50.80;;;;;;5090713;28;19931;-69
2023/11/19 12:05:56;;;;;;;;;;;9.90;50.50;;;;;;5076187;28;20006;-73
2023/11/19 12:08:26;;;;;;;;;;;9.90;51.30;;;;;;5059291;28;20277;-73
2023/11/19 12:10:53;;;;;;;;;;;10.00;51.00;;;;;;5072866;28;19982;-70
2023/11/19 12:16:05;;;;;;;;;;;10.10;51.00;;;;;;5059108;28;20030;-74
2023/11/19 12:18:31;;;;;;;;;;;10.20;51.30;;;;;;5070375;28;19924;-74
2023/11/19 12:21:01;;;;;;;;;;;10.30;50.70;;;;;;5073274;28;19921;-70
2023/11/19 12:23:29;;;;;;;;;;;10.30;50.70;;;;;;5074277;28;19960;-73
2023/11/19 12:25:56;;;;;;;;;;;10.30;50.60;;;;;;5056009;28;19916;-70
2023/11/19 12:28:24;;;;;;;;;;;10.30;50.50;;;;;;5055908;28;19932;-71
2023/11/19 12:30:51;;;;;;;;;;;11.00;49.80;;;;;;5073412;28;20407;-73
2023/11/19 12:33:17;;;;;;;;;;;11.60;47.40;;;;;;5066260;28;19935;-71
2023/11/19 12:36:05;;;;;;;;;;;12.10;46.40;;;;;;5074590;28;19924;-70
2023/11/19 12:38:31;;;;;;;;;;;12.10;46.50;;;;;;5093846;28;20330;-73
2023/11/19 12:41:20;;;;;;;;;;;12.00;46.40;;;;;;5074965;28;19931;-73
2023/11/19 12:43:46;;;;;;;;;;;11.90;46.60;;;;;;5057817;28;20381;-73
2023/11/19 12:46:31;;;;;;;;;;;11.80;47.20;;;;;;5073655;28;19928;-73
2023/11/19 12:48:57;;;;;;;;;;;12.00;46.80;;;;;;5113862;28;20027;-73
2023/11/19 12:51:31;;;;;;;;;;;12.50;46.30;;;;;;5065906;28;20284;-73
2023/11/19 12:53:58;;;;;;;;;;;12.60;45.70;;;;;;5075212;28;19935;-70
2023/11/19 12:56:24;;;;;;;;;;;12.50;45.60;;;;;;5075862;28;20003;-70
2023/11/19 12:58:50;;;;;;;;;;;12.70;45.50;;;;;;5057764;28;20285;-73
2023/11/19 13:01:20;;;;;;;;;;;12.70;44.20;;;;;;5054321;28;22517;-70
2023/11/19 13:03:46;;;;;;;;;;;14.10;41.90;;;;;;5039046;28;19936;-70
2023/11/19 13:06:15;;;;;;;;;;;15.50;39.00;;;;;;5038524;28;19932;-70
2023/11/19 13:09:02;;;;;;;;;;;18.10;34.80;;;;;;5047194;28;19920;-72
2023/11/19 13:11:36;;;;;;;;;;;19.50;30.80;;;;;;5072581;28;20012;-73
2023/11/19 13:16:48;;;;;;;;;;;19.40;31.20;;;;;;5072380;28;20014;-71
2023/11/19 13:19:33;;;;;;;;;;;18.80;32.60;;;;;;5069358;28;19978;-73
2023/11/19 13:21:59;;;;;;;;;;;18.50;31.70;;;;;;5085575;28;20378;-70
2023/11/19 13:24:25;;;;;;;;;;;18.20;32.50;;;;;;5114035;28;19924;-70
2023/11/19 13:26:50;;;;;;;;;;;18.00;33.50;;;;;;5075959;28;20581;-73
2023/11/19 13:29:16;;;;;;;;;;;18.60;32.70;;;;;;5073227;28;19931;-72
2023/11/19 13:31:42;;;;;;;;;;;20.00;29.80;;;;;;5062342;28;19924;-70
2023/11/19 13:34:08;;;;;;;;;;;20.80;29.10;;;;;;5063811;28;19924;-70
2023/11/19 13:36:34;;;;;;;;;;;20.70;28.80;;;;;;5072889;28;20020;-70
2023/11/19 13:39:01;;;;;;;;;;;20.60;29.10;;;;;;5073284;28;19935;-74
2023/11/19 13:41:27;;;;;;;;;;;20.40;29.10;;;;;;5085526;28;19924;-73
2023/11/19 13:43:53;;;;;;;;;;;19.40;30.00;;;;;;5072643;28;19924;-70
2023/11/19 13:46:20;;;;;;;;;;;18.40;31.90;;;;;;5057798;28;20369;-70
2023/11/19 13:48:45;;;;;;;;;;;17.60;33.10;;;;;;5075092;28;19924;-74
2023/11/19 13:51:11;;;;;;;;;;;17.40;33.80;;;;;;5074584;28;20340;-70
2023/11/19 13:53:37;;;;;;;;;;;16.80;34.40;;;;;;5092415;28;19932;-70
2023/11/19 13:56:04;;;;;;;;;;;16.20;35.10;;;;;;5093026;28;20347;-71
2023/11/19 13:58:29;;;;;;;;;;;15.70;35.20;;;;;;5092892;28;19978;-73
2023/11/19 14:00:55;;;;;;;;;;;15.40;36.50;;;;;;5091443;28;19959;-73
2023/11/19 14:03:21;;;;;;;;;;;15.00;37.60;;;;;;5058141;28;20058;-70
2023/11/19 14:05:49;;;;;;;;;;;14.70;38.60;;;;;;5092808;28;19951;-70
2023/11/19 14:08:15;;;;;;;;;;;14.40;39.30;;;;;;5092573;28;19966;-73
2023/11/19 14:10:41;;;;;;;;;;;14.10;39.70;;;;;;5073861;28;19928;-70
2023/11/19 14:13:07;;;;;;;;;;;13.90;40.30;;;;;;5092816;28;19924;-74
2023/11/19 14:15:33;;;;;;;;;;;13.70;40.50;;;;;;5092710;28;19948;-74
2023/11/19 14:18:00;;;;;;;;;;;13.50;41.50;;;;;;5073889;28;19920;-74
2023/11/19 14:20:25;;;;;;;;;;;13.20;41.30;;;;;;5074053;28;19931;-73
2023/11/19 14:22:52;;;;;;;;;;;13.10;42.50;;;;;;5074357;28;20499;-71
2023/11/19 14:25:18;;;;;;;;;;;13.00;43.10;;;;;;5092646;28;19920;-70
2023/11/19 14:27:48;;;;;;;;;;;12.80;43.00;;;;;;5092487;28;19926;-73
2023/11/19 14:30:14;;;;;;;;;;;12.60;43.50;;;;;;5091869;28;20011;-72
2023/11/19 14:32:45;;;;;;;;;;;12.60;44.00;;;;;;5057258;28;20280;-73
2023/11/19 14:35:12;;;;;;;;;;;12.60;43.60;;;;;;5056973;28;20284;-74
2023/11/19 14:37:37;;;;;;;;;;;12.50;44.00;;;;;;5057889;28;19971;-70
2023/11/19 14:40:05;;;;;;;;;;;12.40;44.70;;;;;;5074332;28;19924;-70
2023/11/19 14:42:31;;;;;;;;;;;12.20;45.00;;;;;;5075623;28;19975;-74
2023/11/19 14:44:58;;;;;;;;;;;12.00;44.90;;;;;;5074991;28;19920;-71
2023/11/19 14:47:24;;;;;;;;;;;11.90;46.10;;;;;;5041425;28;20007;-74